createdAt,value
2018-12-01T00:00:31.736Z,23.70
2018-12-01T00:03:00.565Z,24.93
2018-12-01T00:05:29.212Z,16.87
2018-12-01T00:07:57.824Z,16.60
2018-12-01T00:10:26.584Z,18.73
2018-12-01T00:12:55.369Z,22.17
2018-12-01T00:15:25.557Z,18.60
2018-12-01T00:17:54.540Z,17.27
2018-12-01T00:20:23.888Z,17.00
2018-12-01T00:22:52.401Z,19.20
2018-12-01T00:25:21.202Z,18.17
2018-12-01T00:27:50.099Z,21.70
2018-12-01T00:30:19.093Z,18.23
2018-12-01T00:32:48.232Z,17.07
2018-12-01T00:35:17.006Z,22.00
2018-12-01T00:37:46.734Z,18.80
2018-12-01T00:40:17.480Z,14.03
2018-12-01T00:42:46.401Z,18.30
2018-12-01T00:45:17.189Z,20.03
2018-12-01T00:47:47.236Z,16.80
2018-12-01T00:50:18.176Z,22.43
2018-12-01T00:52:47.960Z,16.47
2018-12-01T00:55:17.624Z,16.73
2018-12-01T00:57:46.296Z,17.83
2018-12-01T01:00:15.276Z,15.13
2018-12-01T01:02:48.308Z,15.00
2018-12-01T01:05:17.020Z,19.60
2018-12-01T01:07:45.765Z,14.40
2018-12-01T01:10:14.632Z,15.10
2018-12-01T01:12:43.521Z,17.80
2018-12-01T01:15:12.395Z,20.17
2018-12-01T01:17:41.293Z,18.97
2018-12-01T01:20:12.275Z,15.10
2018-12-01T01:22:41.166Z,15.97
2018-12-01T01:25:11.108Z,19.47
2018-12-01T01:27:40.013Z,17.90
2018-12-01T01:30:24.206Z,15.73
2018-12-01T01:32:57.212Z,16.83
2018-12-01T01:35:25.983Z,22.00
2018-12-01T01:37:54.889Z,22.33
2018-12-01T01:40:23.577Z,14.60
2018-12-01T01:42:52.121Z,13.73
2018-12-01T01:45:20.751Z,19.70
2018-12-01T01:47:49.485Z,17.73
2018-12-01T01:50:18.801Z,19.83
2018-12-01T01:52:47.767Z,21.33
2018-12-01T01:55:16.438Z,16.67
2018-12-01T01:57:45.234Z,19.67
2018-12-01T02:00:18.133Z,17.77
2018-12-01T02:02:49.065Z,18.13
2018-12-01T02:05:18.287Z,14.53
2018-12-01T02:07:47.045Z,19.03
2018-12-01T02:10:16.734Z,19.93
2018-12-01T02:12:45.625Z,18.40
2018-12-01T02:15:14.687Z,12.57
2018-12-01T02:17:43.407Z,15.37
2018-12-01T02:20:12.526Z,19.47
2018-12-01T02:22:41.278Z,17.17
2018-12-01T02:25:11.232Z,15.63
2018-12-01T02:27:40.148Z,18.53
2018-12-01T02:30:09.407Z,23.87
2018-12-01T02:32:37.994Z,18.97
2018-12-01T02:35:08.129Z,17.80
2018-12-01T02:37:37.138Z,19.70
2018-12-01T02:40:07.639Z,18.63
2018-12-01T02:42:36.177Z,19.23
2018-12-01T02:45:16.346Z,16.80
2018-12-01T02:47:45.048Z,20.07
2018-12-01T02:50:14.504Z,13.93
2018-12-01T02:52:43.197Z,14.97
2018-12-01T02:55:11.757Z,16.67
2018-12-01T02:57:40.541Z,17.43
2018-12-01T03:00:11.701Z,18.50
2018-12-01T03:02:41.518Z,19.33
2018-12-01T03:05:12.089Z,23.00
2018-12-01T03:07:41.189Z,14.97
2018-12-01T03:10:12.893Z,23.10
2018-12-01T03:12:41.589Z,19.60
2018-12-01T03:15:12.353Z,28.57
2018-12-01T03:17:41.329Z,21.70
2018-12-01T03:20:12.413Z,27.20
2018-12-01T03:22:41.309Z,23.37
2018-12-01T03:25:10.490Z,18.23
2018-12-01T03:27:39.107Z,16.37
2018-12-01T03:30:09.999Z,15.33
2018-12-01T03:32:38.794Z,10.60
2018-12-01T03:35:08.090Z,19.20
2018-12-01T03:37:36.865Z,19.13
2018-12-01T03:40:06.317Z,16.07
2018-12-01T03:42:35.255Z,14.87
2018-12-01T03:45:04.461Z,20.23
2018-12-01T03:47:33.125Z,16.47
2018-12-01T03:50:01.882Z,14.17
2018-12-01T03:52:31.684Z,14.20
2018-12-01T03:55:00.610Z,16.23
2018-12-01T03:57:29.540Z,21.77
2018-12-01T03:59:58.169Z,18.60
2018-12-01T04:02:26.722Z,23.97
2018-12-01T04:04:55.336Z,17.57
2018-12-01T04:07:23.972Z,16.10
2018-12-01T04:09:52.751Z,21.63
2018-12-01T04:12:21.907Z,17.20
2018-12-01T04:14:50.600Z,15.33
2018-12-01T04:17:19.362Z,12.53
2018-12-01T04:19:48.067Z,17.27
2018-12-01T04:22:16.834Z,17.97
2018-12-01T04:24:45.759Z,17.43
2018-12-01T04:27:14.460Z,17.10
2018-12-01T04:29:43.246Z,19.20
2018-12-01T04:32:12.033Z,12.73
2018-12-01T04:34:40.889Z,18.13
2018-12-01T04:37:09.799Z,15.80
2018-12-01T04:39:38.450Z,16.43
2018-12-01T04:42:07.076Z,15.33
2018-12-01T04:44:35.615Z,17.53
2018-12-01T04:47:04.184Z,14.73
2018-12-01T04:49:32.773Z,18.40
2018-12-01T04:52:01.402Z,17.27
2018-12-01T04:54:29.952Z,14.03
2018-12-01T04:56:58.514Z,13.23
2018-12-01T04:59:27.119Z,15.70
2018-12-01T05:01:55.703Z,16.90
2018-12-01T05:04:24.348Z,23.27
2018-12-01T05:06:53.109Z,17.70
2018-12-01T05:09:22.038Z,12.33
2018-12-01T05:11:50.741Z,13.03
2018-12-01T05:14:19.467Z,20.87
2018-12-01T05:16:48.122Z,13.50
2018-12-01T05:19:16.977Z,18.13
2018-12-01T05:21:45.633Z,17.97
2018-12-01T05:24:14.408Z,16.07
2018-12-01T05:26:43.368Z,14.90
2018-12-01T05:29:12.061Z,13.87
2018-12-01T05:31:40.822Z,10.93
2018-12-01T05:34:09.705Z,14.53
2018-12-01T05:36:38.419Z,20.47
2018-12-01T05:39:08.750Z,17.67
2018-12-01T05:41:37.664Z,22.60
2018-12-01T05:44:06.575Z,16.53
2018-12-01T05:46:35.227Z,15.67
2018-12-01T05:49:03.960Z,15.57
2018-12-01T05:51:32.853Z,16.80
2018-12-01T05:54:01.496Z,15.33
2018-12-01T05:56:30.043Z,16.53
2018-12-01T05:58:58.582Z,17.07
2018-12-01T06:01:27.140Z,13.27
2018-12-01T06:03:55.896Z,17.07
2018-12-01T06:06:24.820Z,13.67
2018-12-01T06:08:53.713Z,20.97
2018-12-01T06:11:22.612Z,15.67
2018-12-01T06:13:51.261Z,14.07
2018-12-01T06:16:20.027Z,10.97
2018-12-01T06:18:48.864Z,14.43
2018-12-01T06:21:17.621Z,15.97
2018-12-01T06:23:46.517Z,12.23
2018-12-01T06:26:15.196Z,20.37
2018-12-01T06:28:43.914Z,16.70
2018-12-01T06:31:12.392Z,32.83
2018-12-01T06:33:41.172Z,16.47
2018-12-01T06:36:10.053Z,18.57
2018-12-01T06:38:38.715Z,18.50
2018-12-01T06:41:07.492Z,17.40
2018-12-01T06:43:36.228Z,14.43
2018-12-01T06:46:05.245Z,17.23
2018-12-01T06:48:33.903Z,15.67
2018-12-01T06:51:02.756Z,14.90
2018-12-01T06:53:31.652Z,16.63
2018-12-01T06:56:00.432Z,40.67
2018-12-01T06:58:29.048Z,17.63
2018-12-01T07:00:57.664Z,15.43
2018-12-01T07:03:26.833Z,19.93
2018-12-01T07:05:55.714Z,12.70
2018-12-01T07:08:24.601Z,16.57
2018-12-01T07:10:53.749Z,17.03
2018-12-01T07:13:22.637Z,18.80
2018-12-01T07:15:51.336Z,15.63
2018-12-01T07:18:31.549Z,13.30
2018-12-01T07:21:00.204Z,16.57
2018-12-01T07:23:28.996Z,14.20
2018-12-01T07:25:57.672Z,18.17
2018-12-01T07:28:26.360Z,18.70
2018-12-01T07:30:55.124Z,17.20
2018-12-01T07:33:23.876Z,19.10
2018-12-01T07:35:52.634Z,18.27
2018-12-01T07:38:21.284Z,13.57
2018-12-01T07:40:50.074Z,20.03
2018-12-01T07:43:18.949Z,16.40
2018-12-01T07:45:47.815Z,17.90
2018-12-01T07:48:17.333Z,13.20
2018-12-01T07:50:46.205Z,17.97
2018-12-01T07:53:17.466Z,16.67
2018-12-01T07:55:43.635Z,13.33
2018-12-01T07:58:12.160Z,17.37
2018-12-01T08:00:40.937Z,17.63
2018-12-01T08:03:09.844Z,16.80
2018-12-01T08:05:38.717Z,15.00
2018-12-01T08:08:07.597Z,13.47
2018-12-01T08:10:36.461Z,36.47
2018-12-01T08:13:05.832Z,54.57
2018-12-01T08:15:34.960Z,15.33
2018-12-01T08:18:03.806Z,19.23
2018-12-01T08:20:32.688Z,22.57
2018-12-01T08:23:01.323Z,14.57
2018-12-01T08:25:29.898Z,18.17
2018-12-01T08:27:58.536Z,12.90
2018-12-01T08:30:27.725Z,16.80
2018-12-01T08:32:56.231Z,18.87
2018-12-01T08:35:26.663Z,14.63
2018-12-01T08:37:55.505Z,21.17
2018-12-01T08:40:24.837Z,17.97
2018-12-01T08:42:53.466Z,16.77
2018-12-01T08:45:22.209Z,20.33
2018-12-01T08:47:50.923Z,16.57
2018-12-01T08:50:20.137Z,14.50
2018-12-01T08:52:48.689Z,17.37
2018-12-01T08:55:17.639Z,15.00
2018-12-01T08:57:46.184Z,18.10
2018-12-01T09:00:20.443Z,14.23
2018-12-01T09:02:52.081Z,13.70
2018-12-01T09:05:20.823Z,19.70
2018-12-01T09:07:49.540Z,14.27
2018-12-01T09:10:18.088Z,15.57
2018-12-01T09:12:46.842Z,15.77
2018-12-01T09:15:15.729Z,15.13
2018-12-01T09:17:44.391Z,12.33
2018-12-01T09:20:13.597Z,17.10
2018-12-01T09:22:43.752Z,17.33
2018-12-01T09:25:13.003Z,14.33
2018-12-01T09:27:41.902Z,17.83
2018-12-01T09:30:12.337Z,17.17
2018-12-01T09:32:40.887Z,13.17
2018-12-01T09:35:09.496Z,19.30
2018-12-01T09:37:38.600Z,14.50
2018-12-01T09:40:10.800Z,14.33
2018-12-01T09:42:39.468Z,17.87
2018-12-01T09:45:11.331Z,18.10
2018-12-01T09:47:40.654Z,13.63
2018-12-01T09:50:10.592Z,14.27
2018-12-01T09:52:39.614Z,10.93
2018-12-01T09:55:13.837Z,19.30
2018-12-01T09:57:43.674Z,14.33
2018-12-01T10:00:18.092Z,18.47
2018-12-01T10:02:47.313Z,14.40
2018-12-01T10:05:16.498Z,12.40
2018-12-01T10:07:45.104Z,14.57
2018-12-01T10:10:15.244Z,16.40
2018-12-01T10:12:44.245Z,14.37
2018-12-01T10:15:15.329Z,15.70
2018-12-01T10:17:44.384Z,14.20
2018-12-01T10:20:15.601Z,12.20
2018-12-01T10:22:44.296Z,16.10
2018-12-01T10:25:13.372Z,18.10
2018-12-01T10:27:41.880Z,16.70
2018-12-01T10:30:13.157Z,14.97
2018-12-01T10:32:41.816Z,15.40
2018-12-01T10:35:11.040Z,12.10
2018-12-01T10:37:39.843Z,16.60
2018-12-01T10:40:09.861Z,14.63
2018-12-01T10:42:38.741Z,13.07
2018-12-01T10:45:10.260Z,12.90
2018-12-01T10:47:39.101Z,18.67
2018-12-01T10:50:12.738Z,16.40
2018-12-01T10:52:41.450Z,13.33
2018-12-01T10:55:11.665Z,14.93
2018-12-01T10:57:40.305Z,14.43
2018-12-01T11:00:14.823Z,12.77
2018-12-01T11:02:49.140Z,12.67
2018-12-01T11:05:18.022Z,13.40
2018-12-01T11:07:46.887Z,11.50
2018-12-01T11:10:16.462Z,11.50
2018-12-01T11:12:44.563Z,10.57
2018-12-01T11:15:13.290Z,14.20
2018-12-01T11:17:41.940Z,11.43
2018-12-01T11:20:11.207Z,12.40
2018-12-01T11:22:39.847Z,9.10
2018-12-01T11:25:09.953Z,10.83
2018-12-01T11:27:38.972Z,13.17
2018-12-01T11:30:14.050Z,10.90
2018-12-01T11:32:42.942Z,11.97
2018-12-01T11:35:11.599Z,12.40
2018-12-01T11:37:40.409Z,8.97
2018-12-01T11:40:09.684Z,10.90
2018-12-01T11:42:38.618Z,10.50
2018-12-01T11:45:09.292Z,9.50
2018-12-01T11:47:37.981Z,11.67
2018-12-01T11:50:14.337Z,10.63
2018-12-01T11:52:43.376Z,10.80
2018-12-01T11:55:14.777Z,11.53
2018-12-01T11:57:43.540Z,8.90
2018-12-01T12:00:15.650Z,9.87
2018-12-01T12:02:44.414Z,7.23
2018-12-01T12:05:15.105Z,7.40
2018-12-01T12:07:49.477Z,6.23
2018-12-01T12:10:17.984Z,9.80
2018-12-01T12:12:46.504Z,14.33
2018-12-01T12:15:15.100Z,8.17
2018-12-01T12:17:45.353Z,8.13
2018-12-01T12:20:14.230Z,7.20
2018-12-01T12:22:43.124Z,8.87
2018-12-01T12:25:11.865Z,6.43
2018-12-01T12:27:40.450Z,7.07
2018-12-01T12:30:09.849Z,7.47
2018-12-01T12:32:38.875Z,8.17
2018-12-01T12:35:08.681Z,5.60
2018-12-01T12:37:37.585Z,6.07
2018-12-01T12:40:11.033Z,7.10
2018-12-01T12:42:39.791Z,8.50
2018-12-01T12:46:34.746Z,6.57
2018-12-01T12:49:03.477Z,8.90
2018-12-01T12:51:32.368Z,10.13
2018-12-01T12:54:01.273Z,8.10
2018-12-01T12:56:29.999Z,6.17
2018-12-01T12:58:58.580Z,6.10
2018-12-01T13:01:27.164Z,5.43
2018-12-01T13:03:55.937Z,6.70
2018-12-01T13:06:25.633Z,6.57
2018-12-01T13:08:54.222Z,4.87
2018-12-01T13:11:22.825Z,8.60
2018-12-01T13:13:51.474Z,6.20
2018-12-01T13:16:20.116Z,5.80
2018-12-01T13:18:48.893Z,5.53
2018-12-01T13:21:17.796Z,6.47
2018-12-01T13:23:46.486Z,9.43
2018-12-01T13:26:15.125Z,6.10
2018-12-01T13:28:43.642Z,12.20
2018-12-01T13:31:12.309Z,6.43
2018-12-01T13:33:41.120Z,6.03
2018-12-01T13:36:09.976Z,4.67
2018-12-01T13:38:38.757Z,4.43
2018-12-01T13:41:07.656Z,6.90
2018-12-01T13:43:36.366Z,7.17
2018-12-01T13:46:04.900Z,8.13
2018-12-01T13:48:33.824Z,5.80
2018-12-01T13:51:02.352Z,9.60
2018-12-01T13:53:31.116Z,6.33
2018-12-01T13:56:00.012Z,8.73
2018-12-01T13:58:28.924Z,4.37
2018-12-01T14:00:57.802Z,5.20
2018-12-01T14:03:26.456Z,5.97
2018-12-01T14:05:55.088Z,6.20
2018-12-01T14:08:23.860Z,6.33
2018-12-01T14:10:52.800Z,10.60
2018-12-01T14:13:21.508Z,9.20
2018-12-01T14:15:50.139Z,7.20
2018-12-01T14:18:18.930Z,6.07
2018-12-01T14:20:47.871Z,7.80
2018-12-01T14:23:16.762Z,6.37
2018-12-01T14:25:45.420Z,9.57
2018-12-01T14:28:13.946Z,6.43
2018-12-01T14:30:42.716Z,5.27
2018-12-01T14:33:12.365Z,8.00
2018-12-01T14:35:41.270Z,6.53
2018-12-01T14:38:11.305Z,7.43
2018-12-01T14:40:40.632Z,5.97
2018-12-01T14:43:09.448Z,9.53
2018-12-01T14:45:38.444Z,8.00
2018-12-01T14:48:07.387Z,8.87
2018-12-01T14:50:36.162Z,5.60
2018-12-01T14:53:05.592Z,6.43
2018-12-01T14:55:34.474Z,4.83
2018-12-01T14:58:03.129Z,6.63
2018-12-01T15:00:32.754Z,6.83
2018-12-01T15:03:01.416Z,7.20
2018-12-01T15:05:30.160Z,8.77
2018-12-01T15:07:59.062Z,6.33
2018-12-01T15:10:27.949Z,7.73
2018-12-01T15:12:56.871Z,7.77
2018-12-01T15:15:26.024Z,9.10
2018-12-01T15:17:54.677Z,5.47
2018-12-01T15:20:24.348Z,10.77
2018-12-01T15:22:54.292Z,6.93
2018-12-01T15:25:24.162Z,7.97
2018-12-01T15:27:53.034Z,9.43
2018-12-01T15:30:22.973Z,6.80
2018-12-01T15:33:02.117Z,9.63
2018-12-01T15:35:30.971Z,5.27
2018-12-01T15:37:59.836Z,10.13
2018-12-01T15:40:28.696Z,7.67
2018-12-01T15:42:57.355Z,6.77
2018-12-01T15:45:26.077Z,6.23
2018-12-01T15:47:55.668Z,5.30
2018-12-01T15:50:24.416Z,8.63
2018-12-01T15:52:57.168Z,6.83
2018-12-01T15:55:25.864Z,6.07
2018-12-01T15:57:54.491Z,9.50
2018-12-01T16:00:24.393Z,9.33
2018-12-01T16:02:53.336Z,7.23
2018-12-01T16:05:22.392Z,6.53
2018-12-01T16:07:52.268Z,8.03
2018-12-01T16:10:22.259Z,9.10
2018-12-01T16:12:51.787Z,8.07
2018-12-01T16:15:21.169Z,10.93
2018-12-01T16:17:49.961Z,12.17
2018-12-01T16:20:19.073Z,9.20
2018-12-01T16:22:48.172Z,11.30
2018-12-01T16:25:18.326Z,9.50
2018-12-01T16:27:47.781Z,6.20
2018-12-01T16:30:18.069Z,6.67
2018-12-01T16:32:47.148Z,10.83
2018-12-01T16:35:15.754Z,15.10
2018-12-01T16:37:44.489Z,7.27
2018-12-01T16:40:20.232Z,8.50
2018-12-01T16:42:49.109Z,5.63
2018-12-01T16:45:18.037Z,11.20
2018-12-01T16:47:46.963Z,9.63
2018-12-01T16:50:15.773Z,7.13
2018-12-01T16:52:44.756Z,9.57
2018-12-01T16:55:15.540Z,10.53
2018-12-01T16:57:44.456Z,8.57
2018-12-01T17:00:19.409Z,8.13
2018-12-01T17:02:53.678Z,8.07
2018-12-01T17:05:23.020Z,11.00
2018-12-01T17:07:51.728Z,9.23
2018-12-01T17:10:21.360Z,7.13
2018-12-01T17:12:54.703Z,7.07
2018-12-01T17:15:23.756Z,6.23
2018-12-01T17:17:52.665Z,8.83
2018-12-01T17:20:21.316Z,10.47
2018-12-01T17:22:57.450Z,6.63
2018-12-01T17:25:26.550Z,7.77
2018-12-01T17:27:55.323Z,8.40
2018-12-01T17:30:26.166Z,7.87
2018-12-01T17:32:55.620Z,9.67
2018-12-01T17:35:24.977Z,9.63
2018-12-01T17:37:54.973Z,10.83
2018-12-01T17:41:28.951Z,8.70
2018-12-01T17:43:58.936Z,9.53
2018-12-01T17:46:27.654Z,15.33
2018-12-01T17:48:56.361Z,9.27
2018-12-01T17:51:25.266Z,8.97
2018-12-01T17:53:56.205Z,8.00
2018-12-01T17:56:25.116Z,6.53
2018-12-01T17:58:53.842Z,9.90
2018-12-01T18:01:22.670Z,7.03
2018-12-01T18:03:51.320Z,5.87
2018-12-01T18:06:20.097Z,7.63
2018-12-01T18:08:49.044Z,8.93
2018-12-01T18:11:17.768Z,7.53
2018-12-01T18:13:46.541Z,8.80
2018-12-01T18:16:15.191Z,4.60
2018-12-01T18:18:43.972Z,7.60
2018-12-01T18:21:12.683Z,7.97
2018-12-01T18:23:41.400Z,11.43
2018-12-01T18:26:10.308Z,5.20
2018-12-01T18:28:43.193Z,9.77
2018-12-01T18:31:12.928Z,8.83
2018-12-01T18:33:42.287Z,9.07
2018-12-01T18:36:12.696Z,6.37
2018-12-01T18:38:42.839Z,10.43
2018-12-01T18:41:11.515Z,8.90
2018-12-01T18:43:40.266Z,8.90
2018-12-01T18:46:11.131Z,29.40
2018-12-01T18:48:39.791Z,5.90
2018-12-01T18:51:08.640Z,10.43
2018-12-01T18:53:37.536Z,7.93
2018-12-01T18:56:06.358Z,8.93
2018-12-01T18:58:34.958Z,6.73
2018-12-01T19:01:03.467Z,5.17
2018-12-01T19:03:33.816Z,6.80
2018-12-01T19:06:02.673Z,6.27
2018-12-01T19:08:31.666Z,9.40
2018-12-01T19:11:00.408Z,10.80
2018-12-01T19:13:29.149Z,7.40
2018-12-01T19:15:58.007Z,9.50
2018-12-01T19:18:26.873Z,11.10
2018-12-01T19:20:55.821Z,6.43
2018-12-01T19:23:24.545Z,7.60
2018-12-01T19:25:53.849Z,6.70
2018-12-01T19:28:22.498Z,6.60
2018-12-01T19:30:51.146Z,8.47
2018-12-01T19:33:20.382Z,9.13
2018-12-01T19:35:50.405Z,8.53
2018-12-01T19:38:25.008Z,8.77
2018-12-01T19:40:53.813Z,7.90
2018-12-01T19:43:22.413Z,8.63
2018-12-01T19:45:50.931Z,7.20
2018-12-01T19:48:19.669Z,5.97
2018-12-01T19:50:48.944Z,8.47
2018-12-01T19:53:17.779Z,10.37
2018-12-01T19:55:47.075Z,7.20
2018-12-01T19:58:16.197Z,10.00
2018-12-01T20:00:46.825Z,8.67
2018-12-01T20:03:16.277Z,7.83
2018-12-01T20:05:45.043Z,10.37
2018-12-01T20:08:14.903Z,9.50
2018-12-01T20:10:45.727Z,7.87
2018-12-01T20:13:32.895Z,6.00
2018-12-01T20:16:06.568Z,5.57
2018-12-01T20:18:35.204Z,10.43
2018-12-01T20:21:03.795Z,5.63
2018-12-01T20:23:32.577Z,12.00
2018-12-01T20:26:01.301Z,7.77
2018-12-01T20:28:29.917Z,6.73
2018-12-01T20:30:58.662Z,8.10
2018-12-01T20:33:27.423Z,8.20
2018-12-01T20:36:28.047Z,6.87
2018-12-01T20:39:07.101Z,7.40
2018-12-01T20:41:36.050Z,7.67
2018-12-01T20:44:05.946Z,9.83
2018-12-01T20:46:35.207Z,6.03
2018-12-01T20:49:03.739Z,9.93
2018-12-01T20:51:32.702Z,8.93
2018-12-01T20:54:01.359Z,6.50
2018-12-01T20:56:31.023Z,10.20
2018-12-01T20:58:59.570Z,7.43
2018-12-01T21:01:28.325Z,8.27
2018-12-01T21:03:57.234Z,11.33
2018-12-01T21:06:26.116Z,5.60
2018-12-01T21:08:54.812Z,6.10
2018-12-01T21:11:23.937Z,5.97
2018-12-01T21:13:52.810Z,6.87
2018-12-01T21:16:21.516Z,3.43
2018-12-01T21:18:50.293Z,5.70
2018-12-01T21:21:19.173Z,10.43
2018-12-01T21:23:47.832Z,5.80
2018-12-01T21:26:16.466Z,7.13
2018-12-01T21:28:44.985Z,6.50
2018-12-01T21:31:13.762Z,4.53
2018-12-01T21:33:42.450Z,7.60
2018-12-01T21:36:11.467Z,7.40
2018-12-01T21:38:40.121Z,5.37
2018-12-01T21:41:08.881Z,4.87
2018-12-01T21:43:37.758Z,4.77
2018-12-01T21:46:06.444Z,5.03
2018-12-01T21:48:35.070Z,5.63
2018-12-01T21:51:03.595Z,10.57
2018-12-01T21:53:32.116Z,5.70
2018-12-01T21:56:00.679Z,5.57
2018-12-01T21:58:29.188Z,9.03
2018-12-01T22:00:58.664Z,4.77
2018-12-01T22:03:28.329Z,5.83
2018-12-01T22:05:59.034Z,5.07
2018-12-01T22:08:27.881Z,4.33
2018-12-01T22:10:58.070Z,4.50
2018-12-01T22:13:26.596Z,4.47
2018-12-01T22:15:55.545Z,4.07
2018-12-01T22:18:25.060Z,3.17
2018-12-01T22:20:54.006Z,4.43
2018-12-01T22:23:22.704Z,4.97
2018-12-01T22:25:51.203Z,4.27
2018-12-01T22:28:19.951Z,4.70
2018-12-01T22:30:50.262Z,5.43
2018-12-01T22:33:20.669Z,2.30
2018-12-01T22:35:49.184Z,4.73
2018-12-01T22:38:18.440Z,4.10
2018-12-01T22:40:47.147Z,3.50
2018-12-01T22:43:15.740Z,3.80
2018-12-01T22:45:44.448Z,3.73
2018-12-01T22:48:14.880Z,3.20
2018-12-01T22:50:45.171Z,4.03
2018-12-01T22:53:13.858Z,3.10
2018-12-01T22:55:42.654Z,2.20
2018-12-01T22:58:12.633Z,2.63
2018-12-01T23:00:50.651Z,3.30
2018-12-01T23:03:19.278Z,3.60
2018-12-01T23:05:47.800Z,2.83
2018-12-01T23:08:18.016Z,3.47
2018-12-01T23:10:46.668Z,2.50
2018-12-01T23:13:15.557Z,3.70
2018-12-01T23:15:44.416Z,3.67
2018-12-01T23:18:14.637Z,3.40
2018-12-01T23:20:44.666Z,2.87
2018-12-01T23:23:13.319Z,3.67
2018-12-01T23:25:41.894Z,4.00
2018-12-01T23:28:11.386Z,2.50
2018-12-01T23:30:40.684Z,3.00
2018-12-01T23:33:11.013Z,2.10
2018-12-01T23:35:39.932Z,2.87
2018-12-01T23:38:08.517Z,2.83
2018-12-01T23:40:38.571Z,2.70
2018-12-01T23:43:07.440Z,2.57
2018-12-01T23:45:37.592Z,5.27
2018-12-01T23:48:06.589Z,2.20
2018-12-01T23:50:35.613Z,2.63
2018-12-01T23:53:06.787Z,2.40
2018-12-01T23:55:36.109Z,2.17
2018-12-01T23:58:04.827Z,2.67
